createdAt,value
2017-06-13T17:50:59.152Z,1.30
2017-06-13T17:53:28.741Z,1.33
2017-06-13T17:55:58.259Z,2.22
2017-06-13T17:58:27.792Z,4.07
2017-06-13T18:00:58.307Z,1.80
2017-06-13T18:03:27.894Z,1.90
2017-06-13T18:05:57.422Z,2.15
2017-06-13T18:08:26.958Z,1.80
2017-06-13T18:10:56.446Z,2.08
2017-06-13T18:13:26.004Z,2.20
2017-06-13T18:15:55.509Z,2.60
2017-06-13T18:18:25.013Z,13.77
2017-06-13T18:20:54.550Z,16.27
2017-06-13T18:23:24.086Z,19.30
2017-06-13T18:25:53.629Z,14.50
2017-06-13T18:28:23.171Z,10.87
2017-06-13T18:30:53.503Z,11.37
2017-06-13T18:33:23.038Z,8.40
2017-06-13T18:35:53.303Z,6.27
2017-06-13T18:38:22.826Z,5.80
2017-06-13T18:40:52.375Z,4.53
2017-06-13T18:43:21.874Z,4.57
2017-06-13T18:45:51.458Z,4.93
2017-06-13T18:48:20.988Z,5.47
2017-06-13T18:50:50.633Z,3.50
2017-06-13T18:53:20.182Z,5.53
2017-06-13T18:55:49.670Z,3.20
2017-06-13T18:58:19.207Z,2.70
2017-06-13T19:00:48.716Z,1.83
2017-06-13T19:03:18.231Z,2.60
2017-06-13T19:05:47.883Z,1.87
2017-06-13T19:08:17.394Z,2.47
2017-06-13T19:10:46.955Z,2.57
2017-06-13T19:13:16.630Z,2.60
2017-06-13T19:15:46.197Z,2.23
2017-06-13T19:18:15.734Z,3.17
2017-06-13T19:20:45.278Z,1.60
2017-06-13T19:23:14.811Z,1.30
2017-06-13T19:25:44.490Z,4.80
2017-06-13T19:28:14.126Z,3.07
2017-06-13T19:30:43.711Z,2.10
2017-06-13T19:33:13.223Z,1.47
2017-06-13T19:35:42.956Z,1.67
2017-06-13T19:38:12.471Z,2.57
2017-06-13T19:40:42.012Z,1.30
2017-06-13T19:43:11.532Z,1.47
2017-06-13T19:45:41.073Z,1.30
2017-06-13T19:48:10.592Z,1.97
2017-06-13T19:50:40.092Z,1.47
2017-06-13T19:53:09.626Z,2.33
2017-06-13T19:55:42.188Z,1.50
2017-06-13T19:58:11.676Z,1.77
2017-06-13T20:00:41.231Z,1.50
2017-06-13T20:03:11.102Z,1.83
2017-06-13T20:05:40.611Z,1.90
2017-06-13T20:08:10.158Z,2.20
2017-06-13T20:10:39.669Z,1.37
2017-06-13T20:13:09.222Z,1.77
2017-06-13T20:15:38.753Z,2.57
2017-06-13T20:18:08.277Z,1.50
2017-06-13T20:20:37.828Z,1.80
2017-06-13T20:23:07.367Z,2.43
2017-06-13T20:25:42.634Z,1.57
2017-06-13T20:28:16.976Z,1.60
2017-06-13T20:30:46.514Z,2.00
